📊 Raw Sensor Data

Showing records 48926 to 48950 of 85,110 total

ID Distance (ft) Battery V Battery A Int Temp (°F) Int Humid (%) Ext Temp (°F) Solar V RSSI SNR Time Stamp
36197 15.1 4.03 0 57 40 59 5.10 -84 8 03/28/2025 09:45 AM
36196 15.1 4.03 5 56 40 57 5.10 -85 8 03/28/2025 09:30 AM
36195 15.0 4.11 0 55 40 56 5.10 -86 8 03/28/2025 09:15 AM
36194 15.0 4.13 66 53 40 53 4.50 -94 7 03/28/2025 09:00 AM
36193 15.0 4.04 24 52 40 52 4.50 -88 7 03/28/2025 08:45 AM
36192 15.0 4.02 18 52 40 52 4.50 -93 6 03/28/2025 08:30 AM
36191 15.0 4.03 21 52 40 52 4.50 -93 6 03/28/2025 08:15 AM
36190 15.0 4.04 7 50 40 51 4.50 -90 7 03/28/2025 08:00 AM
36189 15.0 3.97 0 50 41 50 4.50 -94 5 03/28/2025 07:45 AM
36188 15.0 3.96 -7 49 41 49 4.50 -89 7 03/28/2025 07:15 AM
36187 15.0 4.01 -8 48 41 49 4.00 -87 8 03/28/2025 07:00 AM
36186 14.9 4.01 -5 48 41 49 0.20 -86 5 03/28/2025 06:45 AM
36185 14.9 3.96 -5 48 41 49 0.00 -87 7 03/28/2025 06:30 AM
36184 -- 3.96 -5 48 41 49 0.00 -88 7 03/28/2025 06:00 AM
36183 15.0 3.97 -5 48 41 49 0.00 -84 8 03/28/2025 05:45 AM
36182 15.1 3.96 -5 49 40 49 0.00 -83 8 03/28/2025 05:30 AM
36181 -- 3.97 -5 48 40 50 0.10 -86 8 03/28/2025 05:15 AM
36180 -- 3.97 -5 47 41 49 0.00 -87 6 03/28/2025 05:00 AM
36179 15.0 3.97 -5 47 41 48 0.00 -87 6 03/28/2025 04:45 AM
36178 14.9 4.02 -5 46 41 48 0.00 -87 6 03/28/2025 04:30 AM
36177 -- 3.97 -5 45 41 47 0.00 -87 6 03/28/2025 04:15 AM
36176 -- 3.97 -5 45 41 47 0.00 -86 8 03/28/2025 04:00 AM
36175 15.0 3.97 -5 46 41 46 0.00 -87 7 03/28/2025 03:45 AM
36174 15.2 3.97 -5 46 40 47 0.00 -88 7 03/28/2025 03:30 AM
36173 15.0 3.97 -5 47 40 48 0.00 -87 7 03/28/2025 03:15 AM